Oletha, Texas
Current Conditions -  °F | °C
As of 10:35 PM on Friday 24 Oct 2014 (Local Time) from KLXY Reporting Station
Clear Clear  
Wind Chill: 65°   Ceiling: Unl
Heat Index: 65°   Visibility: 10mi
Dew Point: 59°   Wind: 5mph
Humidity: 82%   Direction: 140°SE
Pressure: 30.12"   Gusts: NA
Location:  31.4027°N, 96.4988°W
Report Text: KLXY 250335Z AUTO 14004KT 10SM CLR 18/15 A3012 RMK AO2 T01840152
Loading
Personal Weather Stations






























Interactive Weather Map
Tropical Storm Tracking
New forecast layout! Learn more

10-Day Weather Forecast

Advertisements
Track Severe Weather on mobile